sensor_id;sensor_type;location;lat;lon;timestamp;P1;durP1;ratioP1;P2;durP2;ratioP2
56297;SDS011;42208;6.376;-10.782;2023-07-13T00:01:09;21.58;;;12.82;;
56297;SDS011;42208;6.376;-10.782;2023-07-13T00:03:38;20.13;;;13.68;;
56297;SDS011;42208;6.376;-10.782;2023-07-13T00:06:08;23.95;;;12.98;;
56297;SDS011;42208;6.376;-10.782;2023-07-13T00:08:38;19.65;;;13.55;;
56297;SDS011;42208;6.376;-10.782;2023-07-13T00:11:06;24.30;;;13.75;;
56297;SDS011;42208;6.376;-10.782;2023-07-13T00:13:35;20.98;;;12.85;;
56297;SDS011;42208;6.376;-10.782;2023-07-13T00:16:07;22.98;;;13.32;;
56297;SDS011;42208;6.376;-10.782;2023-07-13T00:18:37;19.95;;;11.35;;
56297;SDS011;42208;6.376;-10.782;2023-07-13T00:21:06;16.23;;;9.98;;
56297;SDS011;42208;6.376;-10.782;2023-07-13T00:23:35;20.30;;;9.68;;
56297;SDS011;42208;6.376;-10.782;2023-07-13T00:26:06;15.68;;;9.77;;
56297;SDS011;42208;6.376;-10.782;2023-07-13T00:31:07;15.23;;;8.98;;
56297;SDS011;42208;6.376;-10.782;2023-07-13T00:33:37;19.92;;;10.10;;
56297;SDS011;42208;6.376;-10.782;2023-07-13T00:36:06;20.23;;;9.95;;
56297;SDS011;42208;6.376;-10.782;2023-07-13T00:38:36;13.65;;;10.07;;
56297;SDS011;42208;6.376;-10.782;2023-07-13T00:41:07;18.20;;;10.70;;
56297;SDS011;42208;6.376;-10.782;2023-07-13T00:43:36;17.20;;;11.55;;
56297;SDS011;42208;6.376;-10.782;2023-07-13T00:46:38;21.52;;;11.02;;
56297;SDS011;42208;6.376;-10.782;2023-07-13T00:49:03;16.73;;;11.20;;
56297;SDS011;42208;6.376;-10.782;2023-07-13T00:51:39;17.42;;;10.40;;
56297;SDS011;42208;6.376;-10.782;2023-07-13T00:54:14;23.27;;;11.00;;
56297;SDS011;42208;6.376;-10.782;2023-07-13T00:56:47;19.10;;;11.13;;
56297;SDS011;42208;6.376;-10.782;2023-07-13T00:59:18;18.63;;;11.05;;
56297;SDS011;42208;6.376;-10.782;2023-07-13T01:01:49;17.95;;;11.98;;
56297;SDS011;42208;6.376;-10.782;2023-07-13T01:04:18;17.65;;;10.88;;
56297;SDS011;42208;6.376;-10.782;2023-07-13T01:06:46;17.55;;;10.85;;
56297;SDS011;42208;6.376;-10.782;2023-07-13T01:09:15;16.33;;;11.45;;
56297;SDS011;42208;6.376;-10.782;2023-07-13T01:11:44;19.75;;;12.70;;
56297;SDS011;42208;6.376;-10.782;2023-07-13T01:14:13;15.35;;;11.45;;
56297;SDS011;42208;6.376;-10.782;2023-07-13T01:16:43;17.75;;;11.85;;
56297;SDS011;42208;6.376;-10.782;2023-07-13T01:22:05;17.02;;;11.65;;
56297;SDS011;42208;6.376;-10.782;2023-07-13T01:24:36;16.58;;;10.98;;
56297;SDS011;42208;6.376;-10.782;2023-07-13T01:27:06;17.63;;;10.52;;
56297;SDS011;42208;6.376;-10.782;2023-07-13T01:29:36;14.90;;;10.45;;
56297;SDS011;42208;6.376;-10.782;2023-07-13T01:32:06;17.95;;;12.68;;
56297;SDS011;42208;6.376;-10.782;2023-07-13T01:34:39;18.25;;;13.27;;
56297;SDS011;42208;6.376;-10.782;2023-07-13T01:37:08;24.88;;;14.07;;
56297;SDS011;42208;6.376;-10.782;2023-07-13T01:39:37;18.80;;;13.48;;
56297;SDS011;42208;6.376;-10.782;2023-07-13T01:42:07;19.30;;;13.18;;
56297;SDS011;42208;6.376;-10.782;2023-07-13T01:44:36;18.35;;;11.85;;
56297;SDS011;42208;6.376;-10.782;2023-07-13T01:47:05;19.05;;;12.20;;
56297;SDS011;42208;6.376;-10.782;2023-07-13T01:49:33;18.45;;;13.02;;
56297;SDS011;42208;6.376;-10.782;2023-07-13T01:52:02;16.63;;;13.50;;
56297;SDS011;42208;6.376;-10.782;2023-07-13T01:54:32;21.25;;;13.05;;
56297;SDS011;42208;6.376;-10.782;2023-07-13T01:57:00;18.92;;;14.32;;
56297;SDS011;42208;6.376;-10.782;2023-07-13T01:59:29;20.17;;;13.30;;
56297;SDS011;42208;6.376;-10.782;2023-07-13T02:01:57;21.73;;;14.32;;
56297;SDS011;42208;6.376;-10.782;2023-07-13T02:04:26;19.33;;;13.43;;
56297;SDS011;42208;6.376;-10.782;2023-07-13T02:06:55;18.15;;;13.63;;
56297;SDS011;42208;6.376;-10.782;2023-07-13T02:09:23;19.55;;;12.02;;
56297;SDS011;42208;6.376;-10.782;2023-07-13T02:11:52;24.13;;;14.48;;
56297;SDS011;42208;6.376;-10.782;2023-07-13T02:14:21;21.83;;;12.65;;
56297;SDS011;42208;6.376;-10.782;2023-07-13T02:16:49;19.10;;;14.13;;
56297;SDS011;42208;6.376;-10.782;2023-07-13T02:19:18;22.15;;;12.93;;
56297;SDS011;42208;6.376;-10.782;2023-07-13T02:21:47;18.75;;;13.55;;
56297;SDS011;42208;6.376;-10.782;2023-07-13T02:24:16;19.52;;;12.88;;
56297;SDS011;42208;6.376;-10.782;2023-07-13T02:26:44;22.42;;;13.85;;
56297;SDS011;42208;6.376;-10.782;2023-07-13T02:29:13;21.60;;;13.43;;
56297;SDS011;42208;6.376;-10.782;2023-07-13T02:31:44;23.13;;;12.73;;
56297;SDS011;42208;6.376;-10.782;2023-07-13T02:34:14;24.15;;;12.68;;
56297;SDS011;42208;6.376;-10.782;2023-07-13T02:36:42;21.92;;;16.10;;
56297;SDS011;42208;6.376;-10.782;2023-07-13T02:39:13;31.33;;;20.50;;
56297;SDS011;42208;6.376;-10.782;2023-07-13T02:41:41;36.60;;;25.20;;
56297;SDS011;42208;6.376;-10.782;2023-07-13T02:44:13;26.17;;;18.27;;
56297;SDS011;42208;6.376;-10.782;2023-07-13T02:46:42;20.02;;;14.27;;
56297;SDS011;42208;6.376;-10.782;2023-07-13T02:49:12;22.60;;;12.27;;
56297;SDS011;42208;6.376;-10.782;2023-07-13T02:51:41;19.30;;;12.68;;
56297;SDS011;42208;6.376;-10.782;2023-07-13T02:54:10;20.42;;;12.32;;
56297;SDS011;42208;6.376;-10.782;2023-07-13T02:56:39;18.85;;;12.80;;
56297;SDS011;42208;6.376;-10.782;2023-07-13T02:59:08;21.08;;;12.27;;
56297;SDS011;42208;6.376;-10.782;2023-07-13T03:01:37;19.88;;;12.55;;
56297;SDS011;42208;6.376;-10.782;2023-07-13T03:04:06;22.67;;;12.18;;
56297;SDS011;42208;6.376;-10.782;2023-07-13T03:06:35;26.80;;;13.65;;
56297;SDS011;42208;6.376;-10.782;2023-07-13T03:09:04;21.58;;;12.70;;
56297;SDS011;42208;6.376;-10.782;2023-07-13T03:11:34;21.33;;;12.60;;
56297;SDS011;42208;6.376;-10.782;2023-07-13T03:14:13;18.35;;;12.48;;
56297;SDS011;42208;6.376;-10.782;2023-07-13T03:16:42;19.92;;;12.25;;
56297;SDS011;42208;6.376;-10.782;2023-07-13T03:19:11;22.98;;;11.32;;
56297;SDS011;42208;6.376;-10.782;2023-07-13T03:21:43;18.77;;;10.85;;
56297;SDS011;42208;6.376;-10.782;2023-07-13T03:24:12;21.13;;;12.35;;
56297;SDS011;42208;6.376;-10.782;2023-07-13T03:26:41;35.67;;;14.15;;
56297;SDS011;42208;6.376;-10.782;2023-07-13T03:29:10;27.52;;;13.95;;
56297;SDS011;42208;6.376;-10.782;2023-07-13T03:31:39;19.55;;;13.43;;
56297;SDS011;42208;6.376;-10.782;2023-07-13T03:34:07;25.55;;;13.50;;
56297;SDS011;42208;6.376;-10.782;2023-07-13T03:36:37;30.05;;;15.30;;
56297;SDS011;42208;6.376;-10.782;2023-07-13T03:39:09;21.85;;;14.30;;
56297;SDS011;42208;6.376;-10.782;2023-07-13T03:41:51;23.98;;;15.50;;
56297;SDS011;42208;6.376;-10.782;2023-07-13T03:44:19;23.83;;;14.55;;
56297;SDS011;42208;6.376;-10.782;2023-07-13T03:46:53;29.58;;;15.63;;
56297;SDS011;42208;6.376;-10.782;2023-07-13T03:49:22;25.80;;;15.45;;
56297;SDS011;42208;6.376;-10.782;2023-07-13T03:51:51;29.75;;;15.45;;
56297;SDS011;42208;6.376;-10.782;2023-07-13T03:54:20;32.17;;;16.13;;
56297;SDS011;42208;6.376;-10.782;2023-07-13T03:56:48;25.25;;;15.15;;
56297;SDS011;42208;6.376;-10.782;2023-07-13T03:59:20;30.53;;;16.47;;
56297;SDS011;42208;6.376;-10.782;2023-07-13T04:01:48;24.42;;;14.43;;
56297;SDS011;42208;6.376;-10.782;2023-07-13T04:04:17;20.25;;;13.95;;
56297;SDS011;42208;6.376;-10.782;2023-07-13T04:06:45;24.55;;;14.25;;
56297;SDS011;42208;6.376;-10.782;2023-07-13T04:09:14;21.75;;;12.93;;
56297;SDS011;42208;6.376;-10.782;2023-07-13T04:11:42;23.00;;;12.75;;
56297;SDS011;42208;6.376;-10.782;2023-07-13T04:14:11;17.50;;;12.25;;
56297;SDS011;42208;6.376;-10.782;2023-07-13T04:16:40;19.52;;;12.48;;
56297;SDS011;42208;6.376;-10.782;2023-07-13T04:19:09;15.07;;;10.52;;
56297;SDS011;42208;6.376;-10.782;2023-07-13T04:21:38;18.60;;;11.68;;
56297;SDS011;42208;6.376;-10.782;2023-07-13T04:24:07;18.67;;;12.35;;
56297;SDS011;42208;6.376;-10.782;2023-07-13T04:26:35;29.60;;;13.73;;
56297;SDS011;42208;6.376;-10.782;2023-07-13T04:29:04;20.45;;;13.75;;
56297;SDS011;42208;6.376;-10.782;2023-07-13T04:31:33;22.88;;;14.57;;
56297;SDS011;42208;6.376;-10.782;2023-07-13T04:34:01;27.88;;;18.73;;
56297;SDS011;42208;6.376;-10.782;2023-07-13T04:36:30;31.05;;;20.35;;
56297;SDS011;42208;6.376;-10.782;2023-07-13T04:38:58;32.85;;;21.58;;
56297;SDS011;42208;6.376;-10.782;2023-07-13T04:41:27;44.03;;;25.73;;
56297;SDS011;42208;6.376;-10.782;2023-07-13T04:43:57;33.95;;;20.45;;
56297;SDS011;42208;6.376;-10.782;2023-07-13T04:46:25;29.10;;;17.20;;
56297;SDS011;42208;6.376;-10.782;2023-07-13T04:48:54;27.92;;;17.45;;
56297;SDS011;42208;6.376;-10.782;2023-07-13T04:51:23;33.47;;;15.40;;
56297;SDS011;42208;6.376;-10.782;2023-07-13T04:53:52;25.90;;;16.15;;
56297;SDS011;42208;6.376;-10.782;2023-07-13T04:56:27;36.40;;;17.90;;
56297;SDS011;42208;6.376;-10.782;2023-07-13T04:58:55;24.35;;;16.33;;
56297;SDS011;42208;6.376;-10.782;2023-07-13T05:01:24;25.63;;;18.00;;
56297;SDS011;42208;6.376;-10.782;2023-07-13T05:03:52;33.45;;;19.70;;
56297;SDS011;42208;6.376;-10.782;2023-07-13T05:06:21;34.72;;;18.52;;
56297;SDS011;42208;6.376;-10.782;2023-07-13T05:08:49;29.13;;;18.48;;
56297;SDS011;42208;6.376;-10.782;2023-07-13T05:11:18;28.73;;;19.75;;
56297;SDS011;42208;6.376;-10.782;2023-07-13T05:13:46;35.60;;;22.55;;
56297;SDS011;42208;6.376;-10.782;2023-07-13T05:16:15;37.35;;;23.70;;
56297;SDS011;42208;6.376;-10.782;2023-07-13T05:18:43;29.25;;;21.10;;
56297;SDS011;42208;6.376;-10.782;2023-07-13T05:21:12;29.77;;;20.45;;
56297;SDS011;42208;6.376;-10.782;2023-07-13T05:23:41;28.42;;;18.42;;
56297;SDS011;42208;6.376;-10.782;2023-07-13T05:26:09;30.95;;;18.48;;
56297;SDS011;42208;6.376;-10.782;2023-07-13T05:28:39;23.23;;;17.48;;
56297;SDS011;42208;6.376;-10.782;2023-07-13T05:31:08;29.15;;;18.27;;
56297;SDS011;42208;6.376;-10.782;2023-07-13T05:33:38;26.95;;;16.88;;
56297;SDS011;42208;6.376;-10.782;2023-07-13T05:36:07;25.55;;;17.25;;
56297;SDS011;42208;6.376;-10.782;2023-07-13T05:38:36;21.73;;;17.38;;
56297;SDS011;42208;6.376;-10.782;2023-07-13T05:41:04;24.50;;;17.08;;
56297;SDS011;42208;6.376;-10.782;2023-07-13T05:43:33;23.92;;;15.77;;
56297;SDS011;42208;6.376;-10.782;2023-07-13T05:46:02;22.85;;;16.88;;
56297;SDS011;42208;6.376;-10.782;2023-07-13T05:48:30;26.67;;;17.58;;
56297;SDS011;42208;6.376;-10.782;2023-07-13T05:50:59;25.58;;;17.67;;
56297;SDS011;42208;6.376;-10.782;2023-07-13T05:53:28;23.48;;;16.95;;
56297;SDS011;42208;6.376;-10.782;2023-07-13T05:55:57;26.42;;;17.63;;
56297;SDS011;42208;6.376;-10.782;2023-07-13T05:58:29;27.77;;;17.15;;
56297;SDS011;42208;6.376;-10.782;2023-07-13T06:01:02;28.27;;;17.73;;
56297;SDS011;42208;6.376;-10.782;2023-07-13T06:03:36;24.60;;;17.05;;
56297;SDS011;42208;6.376;-10.782;2023-07-13T06:06:05;27.15;;;17.98;;
56297;SDS011;42208;6.376;-10.782;2023-07-13T06:08:35;26.02;;;16.98;;
56297;SDS011;42208;6.376;-10.782;2023-07-13T06:11:08;29.35;;;17.20;;
56297;SDS011;42208;6.376;-10.782;2023-07-13T06:13:42;23.85;;;16.33;;
56297;SDS011;42208;6.376;-10.782;2023-07-13T06:16:12;27.60;;;16.92;;
56297;SDS011;42208;6.376;-10.782;2023-07-13T06:18:41;25.33;;;15.80;;
56297;SDS011;42208;6.376;-10.782;2023-07-13T06:21:11;24.65;;;17.52;;
56297;SDS011;42208;6.376;-10.782;2023-07-13T06:23:41;25.77;;;17.55;;
56297;SDS011;42208;6.376;-10.782;2023-07-13T06:26:11;23.73;;;17.30;;
56297;SDS011;42208;6.376;-10.782;2023-07-13T06:28:39;28.10;;;18.27;;
56297;SDS011;42208;6.376;-10.782;2023-07-13T06:31:08;24.63;;;18.02;;
56297;SDS011;42208;6.376;-10.782;2023-07-13T06:33:38;29.20;;;17.45;;
56297;SDS011;42208;6.376;-10.782;2023-07-13T06:36:07;28.35;;;17.95;;
56297;SDS011;42208;6.376;-10.782;2023-07-13T06:38:37;25.23;;;17.15;;
56297;SDS011;42208;6.376;-10.782;2023-07-13T06:41:07;25.48;;;16.63;;
56297;SDS011;42208;6.376;-10.782;2023-07-13T06:43:36;24.55;;;16.30;;
56297;SDS011;42208;6.376;-10.782;2023-07-13T06:46:05;26.08;;;16.92;;
56297;SDS011;42208;6.376;-10.782;2023-07-13T06:48:34;23.15;;;16.52;;
56297;SDS011;42208;6.376;-10.782;2023-07-13T06:51:02;30.23;;;17.58;;
56297;SDS011;42208;6.376;-10.782;2023-07-13T06:53:31;28.88;;;16.50;;
56297;SDS011;42208;6.376;-10.782;2023-07-13T06:55:59;25.75;;;17.85;;
56297;SDS011;42208;6.376;-10.782;2023-07-13T06:58:28;23.60;;;16.77;;
56297;SDS011;42208;6.376;-10.782;2023-07-13T07:00:56;28.77;;;18.75;;
56297;SDS011;42208;6.376;-10.782;2023-07-13T07:03:25;28.30;;;18.92;;
56297;SDS011;42208;6.376;-10.782;2023-07-13T07:06:52;26.65;;;18.92;;
56297;SDS011;42208;6.376;-10.782;2023-07-13T07:09:24;33.60;;;19.30;;
56297;SDS011;42208;6.376;-10.782;2023-07-13T07:11:52;26.40;;;18.23;;
56297;SDS011;42208;6.376;-10.782;2023-07-13T07:14:29;26.90;;;19.42;;
56297;SDS011;42208;6.376;-10.782;2023-07-13T07:16:58;25.85;;;19.63;;
56297;SDS011;42208;6.376;-10.782;2023-07-13T07:19:29;27.83;;;19.67;;
56297;SDS011;42208;6.376;-10.782;2023-07-13T07:21:58;31.60;;;20.73;;
56297;SDS011;42208;6.376;-10.782;2023-07-13T07:24:26;33.60;;;18.88;;
56297;SDS011;42208;6.376;-10.782;2023-07-13T07:26:55;30.10;;;19.50;;
56297;SDS011;42208;6.376;-10.782;2023-07-13T07:29:26;30.03;;;20.10;;
56297;SDS011;42208;6.376;-10.782;2023-07-13T07:31:58;31.98;;;19.67;;
56297;SDS011;42208;6.376;-10.782;2023-07-13T07:34:47;30.67;;;20.05;;
56297;SDS011;42208;6.376;-10.782;2023-07-13T07:37:16;34.20;;;20.63;;
56297;SDS011;42208;6.376;-10.782;2023-07-13T07:39:47;28.85;;;19.55;;
56297;SDS011;42208;6.376;-10.782;2023-07-13T07:42:36;32.00;;;18.38;;
56297;SDS011;42208;6.376;-10.782;2023-07-13T07:45:04;29.77;;;17.42;;
56297;SDS011;42208;6.376;-10.782;2023-07-13T07:47:33;31.67;;;19.20;;
56297;SDS011;42208;6.376;-10.782;2023-07-13T07:50:02;36.85;;;19.52;;
56297;SDS011;42208;6.376;-10.782;2023-07-13T07:52:32;27.52;;;18.77;;
56297;SDS011;42208;6.376;-10.782;2023-07-13T07:55:01;30.83;;;17.83;;
56297;SDS011;42208;6.376;-10.782;2023-07-13T07:57:32;33.33;;;18.98;;
56297;SDS011;42208;6.376;-10.782;2023-07-13T08:00:21;35.05;;;19.95;;
56297;SDS011;42208;6.376;-10.782;2023-07-13T08:02:53;28.67;;;18.63;;
56297;SDS011;42208;6.376;-10.782;2023-07-13T08:05:24;27.77;;;19.33;;
56297;SDS011;42208;6.376;-10.782;2023-07-13T08:08:08;30.58;;;19.33;;
56297;SDS011;42208;6.376;-10.782;2023-07-13T08:10:40;31.50;;;18.25;;
56297;SDS011;42208;6.376;-10.782;2023-07-13T08:15:38;34.47;;;21.48;;
56297;SDS011;42208;6.376;-10.782;2023-07-13T08:18:06;31.20;;;20.45;;
56297;SDS011;42208;6.376;-10.782;2023-07-13T08:20:38;32.15;;;20.70;;
56297;SDS011;42208;6.376;-10.782;2023-07-13T08:25:37;35.30;;;21.13;;
56297;SDS011;42208;6.376;-10.782;2023-07-13T08:28:05;36.65;;;22.08;;
56297;SDS011;42208;6.376;-10.782;2023-07-13T08:30:34;40.58;;;24.20;;
56297;SDS011;42208;6.376;-10.782;2023-07-13T08:33:03;47.53;;;24.60;;
56297;SDS011;42208;6.376;-10.782;2023-07-13T08:37:43;68.00;;;47.35;;
56297;SDS011;42208;6.376;-10.782;2023-07-13T08:40:12;46.85;;;34.28;;
56297;SDS011;42208;6.376;-10.782;2023-07-13T08:42:48;32.25;;;22.55;;
56297;SDS011;42208;6.376;-10.782;2023-07-13T08:49:13;33.58;;;21.10;;
56297;SDS011;42208;6.376;-10.782;2023-07-13T08:57:13;28.42;;;13.85;;
56297;SDS011;42208;6.376;-10.782;2023-07-13T08:59:47;26.85;;;14.02;;
56297;SDS011;42208;6.376;-10.782;2023-07-13T09:04:59;26.33;;;16.27;;
56297;SDS011;42208;6.376;-10.782;2023-07-13T09:10:31;30.97;;;15.47;;
56297;SDS011;42208;6.376;-10.782;2023-07-13T09:13:15;31.27;;;17.45;;
56297;SDS011;42208;6.376;-10.782;2023-07-13T09:15:58;25.27;;;16.00;;
56297;SDS011;42208;6.376;-10.782;2023-07-13T09:18:30;34.22;;;17.35;;
56297;SDS011;42208;6.376;-10.782;2023-07-13T09:23:43;29.65;;;16.90;;
56297;SDS011;42208;6.376;-10.782;2023-07-13T09:26:17;31.42;;;17.33;;
56297;SDS011;42208;6.376;-10.782;2023-07-13T09:28:50;31.90;;;16.75;;
56297;SDS011;42208;6.376;-10.782;2023-07-13T09:34:04;30.40;;;18.48;;
56297;SDS011;42208;6.376;-10.782;2023-07-13T09:36:49;28.80;;;17.77;;
56297;SDS011;42208;6.376;-10.782;2023-07-13T09:47:27;38.22;;;21.58;;
56297;SDS011;42208;6.376;-10.782;2023-07-13T09:49:58;41.10;;;22.77;;
56297;SDS011;42208;6.376;-10.782;2023-07-13T09:52:43;45.15;;;24.98;;
56297;SDS011;42208;6.376;-10.782;2023-07-13T09:58:21;40.65;;;21.50;;
56297;SDS011;42208;6.376;-10.782;2023-07-13T10:00:54;35.78;;;22.23;;
56297;SDS011;42208;6.376;-10.782;2023-07-13T10:08:39;32.97;;;22.05;;
56297;SDS011;42208;6.376;-10.782;2023-07-13T10:11:24;35.95;;;21.83;;
56297;SDS011;42208;6.376;-10.782;2023-07-13T10:13:59;32.13;;;19.17;;
56297;SDS011;42208;6.376;-10.782;2023-07-13T10:16:31;29.17;;;17.58;;
56297;SDS011;42208;6.376;-10.782;2023-07-13T10:19:14;23.55;;;16.73;;
56297;SDS011;42208;6.376;-10.782;2023-07-13T10:21:55;22.70;;;13.57;;
56297;SDS011;42208;6.376;-10.782;2023-07-13T10:24:27;19.02;;;13.93;;
56297;SDS011;42208;6.376;-10.782;2023-07-13T10:29:59;19.55;;;13.95;;
56297;SDS011;42208;6.376;-10.782;2023-07-13T10:32:43;18.95;;;11.52;;
56297;SDS011;42208;6.376;-10.782;2023-07-13T10:35:15;22.05;;;11.98;;
56297;SDS011;42208;6.376;-10.782;2023-07-13T10:37:51;17.35;;;11.13;;
56297;SDS011;42208;6.376;-10.782;2023-07-13T10:40:58;27.77;;;12.93;;
56297;SDS011;42208;6.376;-10.782;2023-07-13T10:43:42;22.85;;;13.70;;
56297;SDS011;42208;6.376;-10.782;2023-07-13T10:48:50;22.60;;;13.27;;
56297;SDS011;42208;6.376;-10.782;2023-07-13T10:51:22;17.67;;;12.20;;
56297;SDS011;42208;6.376;-10.782;2023-07-13T10:56:48;23.80;;;12.00;;
56297;SDS011;42208;6.376;-10.782;2023-07-13T10:59:23;22.15;;;13.02;;
56297;SDS011;42208;6.376;-10.782;2023-07-13T11:04:42;23.10;;;14.02;;
56297;SDS011;42208;6.376;-10.782;2023-07-13T11:11:03;20.77;;;14.73;;
56297;SDS011;42208;6.376;-10.782;2023-07-13T11:16:13;21.02;;;12.95;;
56297;SDS011;42208;6.376;-10.782;2023-07-13T11:18:49;27.17;;;14.27;;
56297;SDS011;42208;6.376;-10.782;2023-07-13T11:21:23;27.60;;;16.90;;
56297;SDS011;42208;6.376;-10.782;2023-07-13T11:24:02;30.88;;;18.13;;
56297;SDS011;42208;6.376;-10.782;2023-07-13T11:26:50;36.38;;;19.27;;
56297;SDS011;42208;6.376;-10.782;2023-07-13T11:32:26;35.33;;;20.08;;
56297;SDS011;42208;6.376;-10.782;2023-07-13T11:34:57;37.65;;;20.88;;
56297;SDS011;42208;6.376;-10.782;2023-07-13T11:37:26;35.40;;;21.13;;
56297;SDS011;42208;6.376;-10.782;2023-07-13T11:39:57;37.13;;;23.42;;
56297;SDS011;42208;6.376;-10.782;2023-07-13T11:42:27;34.13;;;22.25;;
56297;SDS011;42208;6.376;-10.782;2023-07-13T11:44:59;39.35;;;22.25;;
56297;SDS011;42208;6.376;-10.782;2023-07-13T11:47:39;31.48;;;20.48;;
56297;SDS011;42208;6.376;-10.782;2023-07-13T11:50:21;29.10;;;19.52;;
56297;SDS011;42208;6.376;-10.782;2023-07-13T11:52:51;33.45;;;20.27;;
56297;SDS011;42208;6.376;-10.782;2023-07-13T11:55:22;37.03;;;20.88;;
56297;SDS011;42208;6.376;-10.782;2023-07-13T11:57:56;31.58;;;20.55;;
56297;SDS011;42208;6.376;-10.782;2023-07-13T12:00:31;34.08;;;19.52;;
56297;SDS011;42208;6.376;-10.782;2023-07-13T12:03:04;44.67;;;20.52;;
56297;SDS011;42208;6.376;-10.782;2023-07-13T12:05:34;34.70;;;20.48;;
56297;SDS011;42208;6.376;-10.782;2023-07-13T12:08:10;33.22;;;19.38;;
56297;SDS011;42208;6.376;-10.782;2023-07-13T12:11:03;27.17;;;17.73;;
56297;SDS011;42208;6.376;-10.782;2023-07-13T12:13:36;36.42;;;20.50;;
56297;SDS011;42208;6.376;-10.782;2023-07-13T12:16:26;48.10;;;24.50;;
56297;SDS011;42208;6.376;-10.782;2023-07-13T12:19:00;35.67;;;20.48;;
56297;SDS011;42208;6.376;-10.782;2023-07-13T12:21:39;33.20;;;17.70;;
56297;SDS011;42208;6.376;-10.782;2023-07-13T12:24:16;29.55;;;15.80;;
56297;SDS011;42208;6.376;-10.782;2023-07-13T12:26:59;24.88;;;16.38;;
56297;SDS011;42208;6.376;-10.782;2023-07-13T12:29:35;33.50;;;18.35;;
56297;SDS011;42208;6.376;-10.782;2023-07-13T12:32:08;30.90;;;16.70;;
56297;SDS011;42208;6.376;-10.782;2023-07-13T12:34:49;28.90;;;15.13;;
56297;SDS011;42208;6.376;-10.782;2023-07-13T12:37:34;21.58;;;13.32;;
56297;SDS011;42208;6.376;-10.782;2023-07-13T12:40:03;24.58;;;13.25;;
56297;SDS011;42208;6.376;-10.782;2023-07-13T12:42:33;26.33;;;13.63;;
56297;SDS011;42208;6.376;-10.782;2023-07-13T12:47:56;25.92;;;13.38;;
56297;SDS011;42208;6.376;-10.782;2023-07-13T12:50:34;26.00;;;14.95;;
56297;SDS011;42208;6.376;-10.782;2023-07-13T12:53:09;24.77;;;13.05;;
56297;SDS011;42208;6.376;-10.782;2023-07-13T12:55:49;21.65;;;11.98;;
56297;SDS011;42208;6.376;-10.782;2023-07-13T13:00:55;19.10;;;11.50;;
56297;SDS011;42208;6.376;-10.782;2023-07-13T13:03:33;19.73;;;10.80;;
56297;SDS011;42208;6.376;-10.782;2023-07-13T13:11:03;18.08;;;10.65;;
56297;SDS011;42208;6.376;-10.782;2023-07-13T13:13:31;19.52;;;10.48;;
56297;SDS011;42208;6.376;-10.782;2023-07-13T13:18:49;28.63;;;14.95;;
56297;SDS011;42208;6.376;-10.782;2023-07-13T13:21:42;31.15;;;14.50;;
56297;SDS011;42208;6.376;-10.782;2023-07-13T13:24:15;21.73;;;12.18;;
56297;SDS011;42208;6.376;-10.782;2023-07-13T13:26:48;62.17;;;41.25;;
56297;SDS011;42208;6.376;-10.782;2023-07-13T13:29:20;49.58;;;26.70;;
56297;SDS011;42208;6.376;-10.782;2023-07-13T13:31:51;64.70;;;34.95;;
56297;SDS011;42208;6.376;-10.782;2023-07-13T13:34:21;31.00;;;16.50;;
56297;SDS011;42208;6.376;-10.782;2023-07-13T13:36:52;78.43;;;45.47;;
56297;SDS011;42208;6.376;-10.782;2023-07-13T13:39:30;27.23;;;16.10;;
56297;SDS011;42208;6.376;-10.782;2023-07-13T13:42:04;19.73;;;12.80;;
56297;SDS011;42208;6.376;-10.782;2023-07-13T13:44:34;23.27;;;11.38;;
56297;SDS011;42208;6.376;-10.782;2023-07-13T13:47:03;16.33;;;10.63;;
56297;SDS011;42208;6.376;-10.782;2023-07-13T13:49:32;16.33;;;9.93;;
56297;SDS011;42208;6.376;-10.782;2023-07-13T13:52:00;21.73;;;10.80;;
56297;SDS011;42208;6.376;-10.782;2023-07-13T13:54:34;23.38;;;12.95;;
56297;SDS011;42208;6.376;-10.782;2023-07-13T13:57:08;21.13;;;11.25;;
56297;SDS011;42208;6.376;-10.782;2023-07-13T13:59:38;21.02;;;10.70;;
56297;SDS011;42208;6.376;-10.782;2023-07-13T14:04:58;17.33;;;11.48;;
56297;SDS011;42208;6.376;-10.782;2023-07-13T14:07:29;19.08;;;11.57;;
56297;SDS011;42208;6.376;-10.782;2023-07-13T14:09:58;22.52;;;11.55;;
56297;SDS011;42208;6.376;-10.782;2023-07-13T14:12:28;20.13;;;10.90;;
56297;SDS011;42208;6.376;-10.782;2023-07-13T14:14:58;15.25;;;9.63;;
56297;SDS011;42208;6.376;-10.782;2023-07-13T14:17:27;16.75;;;10.85;;
56297;SDS011;42208;6.376;-10.782;2023-07-13T14:19:58;17.70;;;7.90;;
56297;SDS011;42208;6.376;-10.782;2023-07-13T14:22:28;13.30;;;8.60;;
56297;SDS011;42208;6.376;-10.782;2023-07-13T14:24:56;17.88;;;10.43;;
56297;SDS011;42208;6.376;-10.782;2023-07-13T14:27:36;17.90;;;10.25;;
56297;SDS011;42208;6.376;-10.782;2023-07-13T14:30:23;15.32;;;9.50;;
56297;SDS011;42208;6.376;-10.782;2023-07-13T14:32:52;16.92;;;9.88;;
56297;SDS011;42208;6.376;-10.782;2023-07-13T14:35:23;15.20;;;10.10;;
56297;SDS011;42208;6.376;-10.782;2023-07-13T14:37:53;21.05;;;13.88;;
56297;SDS011;42208;6.376;-10.782;2023-07-13T14:40:26;17.02;;;11.70;;
56297;SDS011;42208;6.376;-10.782;2023-07-13T14:42:58;18.15;;;10.85;;
56297;SDS011;42208;6.376;-10.782;2023-07-13T14:45:26;13.35;;;8.27;;
56297;SDS011;42208;6.376;-10.782;2023-07-13T14:47:58;13.97;;;8.30;;
56297;SDS011;42208;6.376;-10.782;2023-07-13T14:50:31;13.70;;;8.63;;
56297;SDS011;42208;6.376;-10.782;2023-07-13T14:53:02;13.27;;;8.77;;
56297;SDS011;42208;6.376;-10.782;2023-07-13T14:55:31;19.50;;;10.05;;
56297;SDS011;42208;6.376;-10.782;2023-07-13T14:58:00;12.82;;;9.63;;
56297;SDS011;42208;6.376;-10.782;2023-07-13T15:00:40;18.33;;;10.50;;
56297;SDS011;42208;6.376;-10.782;2023-07-13T15:03:20;21.92;;;13.73;;
56297;SDS011;42208;6.376;-10.782;2023-07-13T15:05:54;22.83;;;14.38;;
56297;SDS011;42208;6.376;-10.782;2023-07-13T15:08:32;25.73;;;15.50;;
56297;SDS011;42208;6.376;-10.782;2023-07-13T15:11:03;19.90;;;10.23;;
56297;SDS011;42208;6.376;-10.782;2023-07-13T15:13:38;15.80;;;9.70;;
56297;SDS011;42208;6.376;-10.782;2023-07-13T15:16:23;19.35;;;11.63;;
56297;SDS011;42208;6.376;-10.782;2023-07-13T15:18:53;20.70;;;11.13;;
56297;SDS011;42208;6.376;-10.782;2023-07-13T15:21:23;19.60;;;10.55;;
56297;SDS011;42208;6.376;-10.782;2023-07-13T15:23:54;21.03;;;10.53;;
56297;SDS011;42208;6.376;-10.782;2023-07-13T15:26:24;24.70;;;12.30;;
56297;SDS011;42208;6.376;-10.782;2023-07-13T15:28:53;23.15;;;11.02;;
56297;SDS011;42208;6.376;-10.782;2023-07-13T15:31:24;23.92;;;11.60;;
56297;SDS011;42208;6.376;-10.782;2023-07-13T15:33:56;20.30;;;11.27;;
56297;SDS011;42208;6.376;-10.782;2023-07-13T15:38:59;22.17;;;10.90;;
56297;SDS011;42208;6.376;-10.782;2023-07-13T15:41:47;21.17;;;10.95;;
56297;SDS011;42208;6.376;-10.782;2023-07-13T15:44:26;17.73;;;9.67;;
56297;SDS011;42208;6.376;-10.782;2023-07-13T15:46:56;16.58;;;9.98;;
56297;SDS011;42208;6.376;-10.782;2023-07-13T15:49:25;17.15;;;10.63;;
56297;SDS011;42208;6.376;-10.782;2023-07-13T15:51:54;18.02;;;10.88;;
56297;SDS011;42208;6.376;-10.782;2023-07-13T15:54:24;18.13;;;10.65;;
56297;SDS011;42208;6.376;-10.782;2023-07-13T15:56:54;23.35;;;13.73;;
56297;SDS011;42208;6.376;-10.782;2023-07-13T15:59:27;29.17;;;11.68;;
56297;SDS011;42208;6.376;-10.782;2023-07-13T16:01:58;27.27;;;12.27;;
56297;SDS011;42208;6.376;-10.782;2023-07-13T16:04:28;20.45;;;11.32;;